Time;durP1;ratioP1;P1;durP2;ratioP2;P2;SDS_P1;SDS_P2;PMS_P1;PMS_P2;Temp;Humidity;BMP_temperature;BMP_pressure;BME280_temperature;BME280_humidity;BME280_pressure;Samples;Min_cycle;Max_cycle;Signal;HPM_P1;HPM_P2
2022/04/20 00:00:51;;;;;;;7.07;2.70;;;;;;;6.74;69.93;101000.53;5028580;28;20060;-82
2022/04/20 00:03:23;;;;;;;5.32;2.55;;;;;;;6.73;69.58;101001.44;5031277;28;20334;-84
2022/04/20 00:05:53;;;;;;;6.70;2.50;;;;;;;6.79;70.27;101007.28;5062362;28;20084;-84
2022/04/20 00:08:24;;;;;;;9.00;2.55;;;;;;;6.84;69.74;101000.16;5035853;28;20060;-84
2022/04/20 00:10:56;;;;;;;7.68;2.67;;;;;;;6.83;70.06;100997.56;5032231;28;20064;-83
2022/04/20 00:13:31;;;;;;;6.32;2.75;;;;;;;6.80;70.25;101002.94;5037879;28;20062;-84
2022/04/20 00:15:59;;;;;;;5.35;2.60;;;;;;;6.84;70.38;101009.75;5063635;28;20080;-84
2022/04/20 00:18:29;;;;;;;5.00;2.45;;;;;;;6.92;70.17;101007.69;5055934;28;20144;-85
2022/04/20 00:20:59;;;;;;;4.97;2.72;;;;;;;6.93;70.71;101012.00;5016863;28;20400;-85
2022/04/20 00:23:30;;;;;;;5.90;2.45;;;;;;;6.94;70.35;101003.28;5035326;28;20120;-84
2022/04/20 00:26:07;;;;;;;7.60;2.72;;;;;;;6.95;70.71;101004.13;5071000;28;20062;-84
2022/04/20 00:28:37;;;;;;;5.97;2.95;;;;;;;6.89;71.19;101002.59;5054121;28;20499;-84
2022/04/20 00:31:05;;;;;;;5.07;2.45;;;;;;;6.89;71.27;101004.34;5051458;28;20068;-83
2022/04/20 00:33:41;;;;;;;12.15;3.05;;;;;;;6.94;70.94;101000.66;5038408;28;20055;-84
2022/04/20 00:36:10;;;;;;;9.88;3.15;;;;;;;6.99;70.98;101008.34;5036827;28;20585;-83
2022/04/20 00:38:47;;;;;;;8.23;2.70;;;;;;;7.00;70.82;101004.78;5037582;28;20094;-83
2022/04/20 00:41:15;;;;;;;8.57;2.63;;;;;;;6.95;71.41;101002.34;5036392;28;20059;-85
2022/04/20 00:43:43;;;;;;;6.82;2.72;;;;;;;6.96;71.44;101008.44;5037866;28;20569;-83
2022/04/20 00:46:19;;;;;;;6.70;2.85;;;;;;;6.93;71.86;101011.16;5045907;28;20123;-84
2022/04/20 00:48:48;;;;;;;4.35;2.42;;;;;;;6.91;71.57;101007.75;5042723;28;20083;-83
2022/04/20 00:51:20;;;;;;;6.57;2.38;;;;;;;6.91;71.78;101013.84;5068521;28;20109;-84
2022/04/20 00:53:50;;;;;;;6.53;2.55;;;;;;;6.89;71.76;101013.06;5053858;28;20211;-83
2022/04/20 00:56:23;;;;;;;4.93;2.50;;;;;;;6.87;72.16;101008.78;5036704;28;20056;-84
2022/04/20 00:59:03;;;;;;;4.97;2.17;;;;;;;6.80;73.08;101005.56;5052805;28;20060;-82
2022/04/20 01:01:38;;;;;;;6.28;2.50;;;;;;;6.76;73.38;101006.56;5052146;28;20115;-84
2022/04/20 01:04:08;;;;;;;4.88;2.45;;;;;;;6.82;73.90;101007.19;5069882;28;20052;-84
2022/04/20 01:06:40;;;;;;;10.00;2.65;;;;;;;6.83;73.82;101002.81;5037450;28;20089;-84
2022/04/20 01:09:09;;;;;;;7.10;3.00;;;;;;;6.80;73.28;101002.94;5052972;28;20113;-83
2022/04/20 01:11:37;;;;;;;5.22;2.63;;;;;;;6.79;73.28;101003.81;5056398;28;20428;-83
2022/04/20 01:14:06;;;;;;;4.97;2.35;;;;;;;6.76;73.77;101003.97;5042927;28;20051;-84
2022/04/20 01:16:36;;;;;;;6.70;2.67;;;;;;;6.76;73.97;101007.44;5047137;28;20055;-83
2022/04/20 01:19:04;;;;;;;5.72;2.20;;;;;;;6.73;74.58;101004.06;5052548;28;20047;-84
2022/04/20 01:21:37;;;;;;;5.47;2.30;;;;;;;6.67;75.22;101004.31;5022908;28;20041;-84
2022/04/20 01:24:08;;;;;;;4.75;2.42;;;;;;;6.65;75.01;100999.09;5072007;28;20037;-85
2022/04/20 01:26:36;;;;;;;5.90;3.03;;;;;;;6.64;75.91;100994.78;5047616;28;20053;-84
2022/04/20 01:29:08;;;;;;;5.97;2.85;;;;;;;6.58;76.52;100995.88;5044327;28;20128;-84
2022/04/20 01:31:38;;;;;;;6.15;3.03;;;;;;;6.62;76.20;100995.75;5037405;28;20301;-84
2022/04/20 01:34:22;;;;;;;5.22;2.47;;;;;;;6.62;76.67;100998.34;5049191;28;20052;-84
2022/04/20 01:36:53;;;;;;;5.85;2.55;;;;;;;6.67;76.80;100996.44;5049265;28;20456;-84
2022/04/20 01:39:39;;;;;;;9.43;2.80;;;;;;;6.61;77.54;100994.88;5052766;28;20063;-86
2022/04/20 01:42:21;;;;;;;9.27;3.10;;;;;;;6.63;77.31;101002.69;5031135;28;20048;-85
2022/04/20 01:45:05;;;;;;;7.57;2.88;;;;;;;6.69;77.38;101000.69;5069566;28;20060;-83
2022/04/20 01:47:55;;;;;;;4.93;2.80;;;;;;;6.70;77.86;100991.94;5050532;28;20044;-83
2022/04/20 01:54:02;;;;;;;9.95;3.17;;;;;;;6.71;77.82;100996.28;5055318;28;20146;-84
2022/04/20 01:56:31;;;;;;;5.43;3.03;;;;;;;6.67;77.68;100989.47;5026658;28;20050;-83
2022/04/20 01:59:10;;;;;;;7.72;3.13;;;;;;;6.64;77.90;100989.56;5032580;28;20098;-84
2022/04/20 02:04:31;;;;;;;7.45;2.65;;;;;;;6.60;78.60;100983.56;5025558;28;20037;-84
2022/04/20 02:07:05;;;;;;;8.98;3.25;;;;;;;6.62;78.68;100987.88;5017459;28;20045;-83
2022/04/20 02:09:34;;;;;;;5.07;2.53;;;;;;;6.68;78.93;100985.06;5047258;28;20463;-84
2022/04/20 02:12:24;;;;;;;9.30;2.90;;;;;;;6.66;78.36;100979.88;5033587;28;20068;-84
2022/04/20 02:14:53;;;;;;;8.10;3.53;;;;;;;6.71;78.27;100987.56;5046706;28;20049;-84
2022/04/20 02:17:22;;;;;;;9.18;3.17;;;;;;;6.63;78.32;100979.16;5032886;28;20092;-85
2022/04/20 02:19:58;;;;;;;11.55;2.80;;;;;;;6.64;78.63;100984.31;5044058;28;20064;-83
2022/04/20 02:22:31;;;;;;;8.80;3.05;;;;;;;6.66;78.61;100984.25;5034062;28;20144;-84
2022/04/20 02:25:21;;;;;;;5.25;2.88;;;;;;;6.66;79.12;100973.78;5050402;28;20475;-83
2022/04/20 02:27:50;;;;;;;6.82;3.03;;;;;;;6.63;78.85;100968.69;5019488;28;20397;-84
2022/04/20 02:30:19;;;;;;;10.50;3.40;;;;;;;6.59;79.32;100967.94;5016779;28;20387;-84
2022/04/20 02:32:51;;;;;;;8.55;3.03;;;;;;;6.54;79.98;100968.13;5035972;28;20503;-84
2022/04/20 02:35:21;;;;;;;8.05;3.30;;;;;;;6.47;80.74;100965.78;5049642;28;20032;-84
2022/04/20 02:37:51;;;;;;;5.03;3.03;;;;;;;6.48;80.17;100970.94;5051120;28;20066;-83
2022/04/20 02:40:19;;;;;;;11.02;3.47;;;;;;;6.43;80.90;100978.09;5034323;28;20047;-84
2022/04/20 02:42:50;;;;;;;5.63;3.20;;;;;;;6.42;81.20;100981.63;5033452;28;20067;-83
2022/04/20 02:45:20;;;;;;;6.82;3.00;;;;;;;6.48;80.87;100977.94;4997443;28;20051;-84
2022/04/20 02:47:47;;;;;;;7.50;3.17;;;;;;;6.54;80.88;100965.50;5013197;28;20049;-83
2022/04/20 02:50:19;;;;;;;9.98;3.10;;;;;;;6.55;81.77;100966.34;5043776;28;20145;-84
2022/04/20 02:52:48;;;;;;;7.38;3.30;;;;;;;6.50;81.82;100963.06;5020764;28;20063;-83
2022/04/20 02:55:19;;;;;;;11.65;3.45;;;;;;;6.52;81.04;100977.78;5050581;28;20082;-84
2022/04/20 02:57:49;;;;;;;4.65;2.78;;;;;;;6.59;81.08;100981.03;5046360;28;20059;-84
2022/04/20 03:00:17;;;;;;;7.93;2.92;;;;;;;6.58;81.66;100981.94;5046626;28;20084;-84
2022/04/20 03:02:45;;;;;;;6.60;3.15;;;;;;;6.60;81.36;100980.97;5032450;28;20050;-83
2022/04/20 03:05:13;;;;;;;8.95;3.15;;;;;;;6.58;81.53;100979.34;5034288;28;20051;-83
2022/04/20 03:07:43;;;;;;;7.57;3.28;;;;;;;6.60;81.72;100980.97;5034551;28;20385;-84
2022/04/20 03:10:15;;;;;;;10.38;3.53;;;;;;;6.65;81.45;100980.78;5067838;28;20178;-84
2022/04/20 03:12:45;;;;;;;7.15;3.33;;;;;;;6.67;81.65;100975.53;5034053;28;20048;-84
2022/04/20 03:15:19;;;;;;;7.63;3.05;;;;;;;6.63;82.09;100977.41;5035989;28;20040;-83
2022/04/20 03:17:49;;;;;;;6.75;3.17;;;;;;;6.64;81.85;100967.78;5035994;28;20048;-83
2022/04/20 03:20:20;;;;;;;11.25;3.45;;;;;;;6.64;82.71;100976.47;5025355;28;20039;-84
2022/04/20 03:22:49;;;;;;;9.75;3.55;;;;;;;6.63;82.37;100973.94;5050559;28;20071;-83
2022/04/20 03:25:20;;;;;;;7.18;3.08;;;;;;;6.66;82.57;100986.88;5034905;28;20052;-85
2022/04/20 03:27:48;;;;;;;9.63;3.63;;;;;;;6.66;83.08;100976.41;5066711;28;20086;-84
2022/04/20 03:30:21;;;;;;;8.65;3.40;;;;;;;6.76;82.26;100978.66;5018500;28;20464;-84
2022/04/20 03:32:49;;;;;;;8.68;2.97;;;;;;;6.77;82.24;100982.97;5036389;28;20084;-83
2022/04/20 03:35:18;;;;;;;7.78;3.97;;;;;;;6.76;82.54;100978.66;5035370;28;20044;-82
2022/04/20 03:37:50;;;;;;;8.23;3.85;;;;;;;6.76;83.02;100986.50;5046457;28;20048;-83
2022/04/20 03:40:20;;;;;;;11.15;3.75;;;;;;;6.77;82.37;100988.19;5048630;28;20135;-84
2022/04/20 03:42:48;;;;;;;8.90;3.58;;;;;;;6.82;82.16;100988.03;5031923;28;20056;-84
2022/04/20 03:45:19;;;;;;;7.53;3.65;;;;;;;6.83;82.08;100987.94;5030107;28;20130;-83
2022/04/20 03:48:06;;;;;;;7.40;3.67;;;;;;;6.86;82.01;100989.63;5050898;28;20056;-84
2022/04/20 03:50:39;;;;;;;14.35;3.95;;;;;;;6.86;81.91;100976.53;5032140;28;20556;-84
2022/04/20 03:53:12;;;;;;;7.60;3.70;;;;;;;6.92;82.23;100978.06;5033139;28;20124;-84
2022/04/20 03:55:43;;;;;;;11.25;3.70;;;;;;;6.84;82.78;100983.56;5021996;28;20125;-84
2022/04/20 03:58:14;;;;;;;11.10;4.22;;;;;;;6.87;82.51;100988.69;5070487;28;20055;-83
2022/04/20 04:00:42;;;;;;;5.97;3.30;;;;;;;6.86;83.12;100981.75;5065842;28;20048;-84
2022/04/20 04:03:14;;;;;;;9.25;4.07;;;;;;;6.89;83.32;100981.66;5047432;28;20541;-85
2022/04/20 04:05:43;;;;;;;9.77;4.95;;;;;;;6.88;83.82;100979.06;5029016;28;20060;-83
2022/04/20 04:08:11;;;;;;;10.25;4.00;;;;;;;6.85;83.70;100986.16;5029939;28;20045;-83
2022/04/20 04:10:39;;;;;;;8.18;3.72;;;;;;;6.86;84.69;100987.00;5028848;28;20032;-83
2022/04/20 04:13:09;;;;;;;11.30;4.72;;;;;;;6.83;84.82;100982.72;5034264;28;20048;-83
2022/04/20 04:15:38;;;;;;;8.95;4.50;;;;;;;6.90;84.46;100985.97;5045531;28;20044;-84
2022/04/20 04:18:12;;;;;;;9.00;4.75;;;;;;;6.93;84.77;100979.75;5045634;28;20136;-83
2022/04/20 04:20:43;;;;;;;7.38;4.70;;;;;;;6.94;85.09;100971.88;5028611;28;20492;-84
2022/04/20 04:23:12;;;;;;;12.95;4.65;;;;;;;6.97;85.22;100966.50;5035443;28;20044;-84
2022/04/20 04:25:43;;;;;;;10.90;4.47;;;;;;;6.94;85.52;100965.78;4993737;28;20189;-84
2022/04/20 04:28:25;;;;;;;13.18;5.43;;;;;;;6.98;85.72;100962.09;5056171;28;20056;-84
2022/04/20 04:30:57;;;;;;;8.18;4.78;;;;;;;7.01;85.62;100965.47;5047872;28;20056;-83
2022/04/20 04:33:26;;;;;;;8.68;5.32;;;;;;;7.04;86.06;100967.13;5035322;28;20135;-84
2022/04/20 04:35:54;;;;;;;7.97;4.80;;;;;;;7.09;86.00;100971.25;5044019;28;20060;-84
2022/04/20 04:38:23;;;;;;;10.38;5.00;;;;;;;7.19;85.96;100966.50;5051266;28;20041;-83
2022/04/20 04:40:50;;;;;;;11.30;5.13;;;;;;;7.24;85.93;100971.56;5045219;28;20044;-84
2022/04/20 04:43:23;;;;;;;7.28;4.50;;;;;;;7.30;85.32;100964.34;5017173;28;20040;-83
2022/04/20 04:48:40;;;;;;;12.88;5.55;;;;;;;7.44;84.68;100974.25;5034461;28;20048;-84
2022/04/20 04:51:15;;;;;;;11.60;5.53;;;;;;;7.55;84.06;100979.91;5050384;28;20053;-85
2022/04/20 04:53:44;;;;;;;;;;;;;;;7.64;84.15;100977.81;5036331;28;20516;-84
2022/04/20 04:56:16;;;;;;;6.55;4.65;;;;;;;7.65;84.04;100974.28;5044813;28;19920;-84
2022/04/20 04:58:47;;;;;;;12.35;4.70;;;;;;;7.75;83.33;100971.25;5057696;28;20076;-84
2022/04/20 05:01:16;;;;;;;12.52;5.45;;;;;;;7.79;82.84;100970.19;5010658;28;20032;-83
2022/04/20 05:03:46;;;;;;;10.40;5.15;;;;;;;7.81;82.92;100972.75;5040946;28;20048;-85
2022/04/20 05:06:17;;;;;;;12.40;6.63;;;;;;;7.86;82.80;100971.63;5036700;28;20052;-84
2022/04/20 05:08:48;;;;;;;11.32;5.85;;;;;;;7.95;82.27;100980.88;5051163;28;20116;-84
2022/04/20 05:11:15;;;;;;;10.27;5.30;;;;;;;8.01;82.11;100975.34;5053459;28;20364;-83
2022/04/20 05:13:43;;;;;;;10.13;5.60;;;;;;;8.01;81.64;100980.59;5021282;28;20183;-85
2022/04/20 05:16:11;;;;;;;12.93;5.97;;;;;;;8.10;81.91;100989.84;5035919;28;20059;-84
2022/04/20 05:18:44;;;;;;;7.20;5.28;;;;;;;8.09;81.52;100978.50;5036727;28;20266;-84
2022/04/20 05:21:12;;;;;;;9.02;5.63;;;;;;;8.27;80.45;100981.25;5051164;28;20055;-84
2022/04/20 05:23:40;;;;;;;13.18;4.65;;;;;;;8.36;80.42;100973.88;5073418;28;20054;-84
2022/04/20 05:26:07;;;;;;;10.85;5.05;;;;;;;8.42;79.64;100979.75;5051913;28;20644;-83
2022/04/20 05:28:39;;;;;;;10.70;4.85;;;;;;;8.46;78.73;100984.81;5018498;28;20065;-84
2022/04/20 05:31:07;;;;;;;10.82;5.25;;;;;;;8.52;78.59;100971.44;5050582;28;20048;-83
2022/04/20 05:33:37;;;;;;;7.03;5.03;;;;;;;8.58;78.58;100981.63;5057043;28;20056;-83
2022/04/20 05:36:07;;;;;;;7.65;5.15;;;;;;;8.56;77.92;100980.03;5032360;28;20049;-84
2022/04/20 05:41:39;;;;;;;10.00;5.00;;;;;;;8.48;78.94;100992.63;5039481;28;20036;-84
2022/04/20 05:44:09;;;;;;;11.35;5.50;;;;;;;8.48;78.37;100976.88;5033364;28;20052;-84
2022/04/20 05:46:42;;;;;;;11.10;4.90;;;;;;;8.56;78.53;100983.50;5067792;28;20049;-83
2022/04/20 05:52:51;;;;;;;8.45;5.00;;;;;;;8.60;78.42;100994.69;5050257;28;20048;-85
2022/04/20 05:55:29;;;;;;;7.32;5.03;;;;;;;8.62;77.86;100985.84;5021851;28;20108;-84
2022/04/20 05:58:00;;;;;;;10.00;5.03;;;;;;;8.57;77.88;100984.34;5055015;28;20049;-84
2022/04/20 06:00:36;;;;;;;9.80;5.35;;;;;;;8.51;78.47;100982.84;5034654;28;20063;-84
2022/04/20 06:03:04;;;;;;;9.98;5.25;;;;;;;8.44;79.07;100994.53;5023833;28;20059;-84
2022/04/20 06:05:38;;;;;;;10.80;5.57;;;;;;;8.25;79.87;100994.44;5041781;28;20838;-84
2022/04/20 06:08:07;;;;;;;8.73;5.70;;;;;;;8.32;79.46;101000.25;5073375;28;20383;-84
2022/04/20 06:10:35;;;;;;;8.10;5.45;;;;;;;8.40;78.90;101000.81;5020615;28;20044;-82
2022/04/20 06:13:05;;;;;;;11.95;5.50;;;;;;;8.57;77.97;100995.69;5019244;28;20041;-84
2022/04/20 06:15:38;;;;;;;10.07;5.60;;;;;;;8.80;77.78;101005.16;5050055;28;20625;-86
2022/04/20 06:18:09;;;;;;;10.65;5.53;;;;;;;9.05;76.36;101004.88;5047629;28;20057;-85
2022/04/20 06:20:40;;;;;;;12.20;5.10;;;;;;;9.31;75.62;100997.53;5031975;28;20153;-83
2022/04/20 06:23:07;;;;;;;7.45;4.95;;;;;;;9.51;74.66;100997.44;5020445;28;20056;-84
2022/04/20 06:25:41;;;;;;;6.85;4.40;;;;;;;9.59;73.45;101003.19;5017834;28;20063;-82
2022/04/20 06:28:12;;;;;;;6.78;4.82;;;;;;;9.77;72.01;100997.91;5036961;28;20079;-83
2022/04/20 06:30:46;;;;;;;5.68;4.50;;;;;;;9.97;71.32;100995.16;5024819;28;20123;-85
2022/04/20 06:33:23;;;;;;;9.85;4.93;;;;;;;10.02;70.89;100989.66;5045585;28;20087;-84
2022/04/20 06:35:51;;;;;;;10.02;4.70;;;;;;;9.90;70.58;100989.34;5032397;28;20142;-84
2022/04/20 06:38:22;;;;;;;7.57;4.40;;;;;;;9.79;70.10;100988.19;5048601;28;20102;-85
2022/04/20 06:40:58;;;;;;;9.95;4.63;;;;;;;9.56;70.24;100987.53;5070734;28;20059;-83
2022/04/20 06:43:32;;;;;;;6.80;4.25;;;;;;;9.61;69.78;100992.59;5036854;28;20194;-85
2022/04/20 06:46:08;;;;;;;9.60;4.40;;;;;;;9.39;70.54;100987.50;5051867;28;20082;-84
2022/04/20 06:48:39;;;;;;;9.55;4.55;;;;;;;9.32;70.69;100989.59;5015330;28;20052;-84
2022/04/20 07:00:12;;;;;;;7.05;4.45;;;;;;;10.23;66.98;100978.06;5050660;28;20072;-82
2022/04/20 07:03:08;;;;;;;9.02;4.38;;;;;;;10.26;66.43;100977.91;5032037;28;20106;-84
2022/04/20 07:05:36;;;;;;;7.65;3.90;;;;;;;10.37;66.71;100978.22;5050832;28;20435;-83
2022/04/20 07:08:06;;;;;;;5.50;3.78;;;;;;;10.54;64.72;100965.94;5019129;28;20052;-84
2022/04/20 07:10:34;;;;;;;8.27;3.45;;;;;;;10.57;64.88;100971.88;5048446;28;20051;-85
2022/04/20 07:13:03;;;;;;;8.30;4.20;;;;;;;10.50;64.43;100985.47;5050550;28;20330;-83
2022/04/20 07:15:31;;;;;;;12.25;4.47;;;;;;;10.63;64.67;100981.25;5032594;28;20072;-84
2022/04/20 07:17:58;;;;;;;9.32;3.63;;;;;;;10.68;63.78;100984.50;5051344;28;20040;-84
2022/04/20 07:20:26;;;;;;;7.22;3.80;;;;;;;10.71;63.91;100992.19;5014929;28;20131;-84
2022/04/20 07:22:54;;;;;;;6.85;3.97;;;;;;;10.79;62.94;100991.78;5042961;28;20149;-83
2022/04/20 07:25:21;;;;;;;6.75;4.03;;;;;;;10.78;62.40;100990.94;5017019;28;20052;-84
2022/04/20 07:27:52;;;;;;;7.72;3.83;;;;;;;10.79;62.66;100991.78;5033444;28;20409;-84
2022/04/20 07:30:25;;;;;;;13.50;4.63;;;;;;;10.67;63.41;100989.81;5043630;28;20047;-83
2022/04/20 07:32:59;;;;;;;6.35;3.78;;;;;;;10.57;63.20;100990.31;5050852;28;20098;-84
2022/04/20 07:35:28;;;;;;;5.70;3.35;;;;;;;10.56;63.28;100982.50;5044288;28;20589;-84
2022/04/20 07:37:57;;;;;;;9.50;4.03;;;;;;;10.57;63.07;100984.19;5018266;28;20048;-84
2022/04/20 07:40:25;;;;;;;5.53;3.80;;;;;;;10.63;62.39;100981.25;5026421;28;20411;-84
2022/04/20 07:42:55;;;;;;;7.78;4.00;;;;;;;10.63;62.92;100981.25;5030514;28;20144;-85
2022/04/20 07:45:26;;;;;;;6.35;4.72;;;;;;;10.75;62.59;100995.53;5033301;28;20036;-84
2022/04/20 07:47:54;;;;;;;8.07;3.67;;;;;;;10.67;62.48;100984.53;5034541;28;20380;-85
2022/04/20 07:50:25;;;;;;;7.00;3.40;;;;;;;10.75;62.10;100987.63;5012882;28;20041;-84
2022/04/20 07:52:58;;;;;;;8.75;3.63;;;;;;;10.96;61.66;100983.00;5027442;28;20049;-84
2022/04/20 07:55:28;;;;;;;5.93;3.97;;;;;;;11.09;61.14;100982.22;5012024;28;20488;-85
2022/04/20 07:58:00;;;;;;;7.38;3.53;;;;;;;11.33;60.71;100982.63;5040309;28;20053;-83
2022/04/20 08:00:28;;;;;;;5.47;3.05;;;;;;;11.89;57.52;100985.63;5033504;28;20106;-84
2022/04/20 08:03:15;;;;;;;5.05;3.22;;;;;;;12.23;54.83;100978.34;5048759;28;20040;-83
2022/04/20 08:05:49;;;;;;;10.85;3.35;;;;;;;12.57;54.28;100972.72;5029821;28;20182;-83
2022/04/20 08:08:19;;;;;;;4.32;2.53;;;;;;;12.70;52.41;100975.44;5011165;28;20075;-84
2022/04/20 08:10:54;;;;;;;6.57;2.65;;;;;;;12.78;52.09;100972.31;5027463;28;20094;-84
2022/04/20 08:16:29;;;;;;;6.07;2.60;;;;;;;13.19;49.03;100974.97;4990140;28;20375;-84
2022/04/20 08:18:59;;;;;;;4.95;2.60;;;;;;;13.11;49.37;100985.22;4995537;28;20050;-84
2022/04/20 08:21:27;;;;;;;4.05;2.55;;;;;;;13.18;50.16;100978.56;4972135;28;20054;-83
2022/04/20 08:23:55;;;;;;;6.60;2.97;;;;;;;13.03;48.24;100983.03;5000147;28;20463;-83
2022/04/20 08:26:28;;;;;;;4.82;2.65;;;;;;;13.16;47.60;100976.03;5040018;28;20075;-84
2022/04/20 08:28:57;;;;;;;5.00;2.55;;;;;;;13.22;48.55;100977.47;5017752;28;20040;-83
2022/04/20 08:31:27;;;;;;;5.72;2.70;;;;;;;13.44;47.90;100982.22;5029454;28;20131;-84
2022/04/20 08:33:55;;;;;;;5.65;2.78;;;;;;;13.35;46.37;100973.06;5019297;28;20067;-84
2022/04/20 08:36:23;;;;;;;8.43;1.98;;;;;;;13.27;46.42;100975.38;5019230;28;20083;-84
2022/04/20 08:38:55;;;;;;;9.50;2.80;;;;;;;13.59;46.33;100973.25;5035671;28;20064;-83
2022/04/20 08:41:34;;;;;;;16.00;2.55;;;;;;;13.60;45.15;100963.56;5066273;28;20383;-83
2022/04/20 08:44:06;;;;;;;7.03;2.15;;;;;;;13.55;45.09;100976.19;5018862;28;20113;-84
2022/04/20 08:46:40;;;;;;;4.70;2.05;;;;;;;13.63;45.38;100979.19;5035898;28;20051;-84
2022/04/20 08:49:10;;;;;;;6.93;2.92;;;;;;;13.40;45.78;100980.72;5050052;28;20102;-83
2022/04/20 08:54:28;;;;;;;3.55;2.00;;;;;;;12.89;47.39;100978.63;5049221;28;20068;-83
2022/04/20 08:57:16;;;;;;;7.50;3.25;;;;;;;12.95;46.88;100984.47;5019366;28;20052;-85
2022/04/20 08:59:51;;;;;;;5.40;2.55;;;;;;;12.99;47.24;100978.06;5025097;28;20131;-83
2022/04/20 09:02:24;;;;;;;;;;;;;;;12.87;48.12;100984.94;5020231;28;20045;-84
2022/04/20 09:04:56;;;;;;;4.72;2.05;;;;;;;12.85;48.14;100986.84;5053757;28;20340;-83
2022/04/20 09:07:31;;;;;;;7.05;2.40;;;;;;;12.76;50.62;100990.06;5027512;28;20117;-83
2022/04/20 09:10:00;;;;;;;6.78;2.67;;;;;;;12.92;51.82;100986.38;5037619;28;20041;-83
2022/04/20 09:12:28;;;;;;;3.63;2.17;;;;;;;12.92;51.20;100985.50;5018829;28;20151;-83
2022/04/20 09:15:00;;;;;;;5.95;2.47;;;;;;;12.63;52.05;100990.81;5049476;28;20158;-84
2022/04/20 09:17:32;;;;;;;7.65;2.65;;;;;;;12.25;54.11;100989.66;5028696;28;20107;-83
2022/04/20 09:20:00;;;;;;;3.92;2.53;;;;;;;12.19;55.80;100996.16;5036080;28;20139;-84
2022/04/20 09:22:35;;;;;;;14.77;3.22;;;;;;;12.39;55.72;100997.59;5017998;28;20097;-84
2022/04/20 09:25:14;;;;;;;4.18;2.40;;;;;;;12.50;56.23;100997.78;5064195;28;20036;-84
2022/04/20 09:27:46;;;;;;;5.93;3.25;;;;;;;12.51;57.29;101002.13;5050144;28;20484;-84
2022/04/20 09:30:15;;;;;;;7.82;2.88;;;;;;;12.56;57.63;100999.19;5036288;28;20037;-83
2022/04/20 09:32:44;;;;;;;4.97;2.80;;;;;;;12.55;58.97;100997.50;5033529;28;20071;-83
2022/04/20 09:35:18;;;;;;;3.95;2.17;;;;;;;12.64;58.86;100987.22;5034758;28;20099;-83
2022/04/20 09:38:04;;;;;;;4.55;3.17;;;;;;;12.45;59.59;100984.03;5044949;28;20035;-84
2022/04/20 09:40:39;;;;;;;4.15;2.65;;;;;;;12.36;59.88;100982.78;5016180;28;20135;-84
2022/04/20 09:43:16;;;;;;;5.93;3.00;;;;;;;12.71;60.74;100984.22;5004015;28;20052;-83
2022/04/20 09:45:44;;;;;;;6.03;2.42;;;;;;;12.65;59.56;100985.44;5065299;28;20156;-84
2022/04/20 09:51:14;;;;;;;4.97;2.70;;;;;;;12.75;58.65;100972.53;5058091;28;20174;-84
2022/04/20 09:53:45;;;;;;;9.20;2.78;;;;;;;12.73;58.92;100974.41;5034110;28;20174;-84
2022/04/20 09:56:19;;;;;;;4.75;2.30;;;;;;;12.77;58.75;100981.19;5013495;28;20036;-84
2022/04/20 09:59:02;;;;;;;5.57;2.40;;;;;;;12.77;58.83;100989.13;5049544;28;20274;-84
2022/04/20 10:01:36;;;;;;;7.10;3.58;;;;;;;12.57;58.90;100972.72;5051583;28;20053;-84
2022/04/20 10:04:06;;;;;;;8.65;2.65;;;;;;;12.62;59.11;100983.84;5034198;28;20048;-83
2022/04/20 10:06:36;;;;;;;8.00;3.08;;;;;;;12.76;57.95;100976.84;5030747;28;20059;-83
2022/04/20 10:09:08;;;;;;;5.22;2.15;;;;;;;12.88;59.26;100974.31;5022683;28;20120;-83
2022/04/20 10:11:37;;;;;;;9.57;3.38;;;;;;;12.87;58.90;100969.94;5023345;28;20044;-83
2022/04/20 10:16:56;;;;;;;3.38;2.35;;;;;;;12.83;57.83;100979.03;5051181;28;20040;-83
2022/04/20 10:19:30;;;;;;;6.57;2.72;;;;;;;12.45;58.36;100975.25;5043662;28;20049;-83
2022/04/20 10:22:05;;;;;;;5.60;2.20;;;;;;;12.44;59.26;100966.50;5016444;28;20254;-83
2022/04/20 10:24:42;;;;;;;8.23;3.47;;;;;;;12.63;59.26;100948.56;5018952;28;20051;-83
2022/04/20 10:27:16;;;;;;;7.32;2.70;;;;;;;12.86;57.99;100951.53;5033226;28;20083;-83
2022/04/20 10:30:02;;;;;;;6.47;2.83;;;;;;;12.93;57.54;100939.66;5014518;28;20110;-83
2022/04/20 10:32:45;;;;;;;5.78;3.13;;;;;;;13.00;58.87;100933.00;5043753;28;20102;-83
2022/04/20 10:35:16;;;;;;;9.18;2.55;;;;;;;13.04;58.33;100923.09;5032293;28;20521;-84
2022/04/20 10:38:18;;;;;;;6.28;3.00;;;;;;;13.00;58.87;100926.88;5049529;28;20468;-84
2022/04/20 10:41:09;;;;;;;7.05;2.80;;;;;;;12.97;58.71;100924.44;5032937;28;20083;-83
2022/04/20 10:43:43;;;;;;;10.63;3.15;;;;;;;12.78;59.95;100922.13;5048682;28;20415;-83
2022/04/20 10:46:16;;;;;;;4.70;3.00;;;;;;;12.52;61.30;100921.97;5047856;28;20135;-83
2022/04/20 10:48:58;;;;;;;6.38;3.03;;;;;;;12.22;62.25;100921.22;5035675;28;20507;-84
2022/04/20 10:51:42;;;;;;;4.82;2.88;;;;;;;12.23;62.84;100917.63;5033563;28;20079;-83
2022/04/20 10:54:31;;;;;;;10.07;2.80;;;;;;;12.05;62.39;100911.69;5049322;28;20103;-83
2022/04/20 10:57:02;;;;;;;4.90;2.55;;;;;;;11.87;62.74;100905.72;5029982;28;20079;-83
2022/04/20 10:59:33;;;;;;;6.95;2.92;;;;;;;11.90;62.87;100898.47;5050066;28;20045;-85
2022/04/20 11:02:02;;;;;;;8.45;3.72;;;;;;;12.00;64.08;100901.41;5033779;28;20132;-85
2022/04/20 11:04:50;;;;;;;12.00;3.30;;;;;;;12.03;62.83;100895.09;5020503;28;20036;-84
2022/04/20 11:07:32;;;;;;;5.82;3.25;;;;;;;12.15;62.56;100887.25;5017568;28;20045;-84
2022/04/20 11:10:05;;;;;;;7.28;2.83;;;;;;;12.34;62.59;100888.81;5035043;28;20496;-84
2022/04/20 11:18:42;;;;;;;5.22;2.28;;;;;;;12.30;60.81;100887.28;5034845;28;20353;-85
2022/04/20 11:21:11;;;;;;;;;;;;;;;12.32;60.38;100893.31;5034745;28;20045;-84
2022/04/20 11:24:05;;;;;;;7.85;2.45;;;;;;;12.38;60.50;100891.16;5031751;28;19928;-84
2022/04/20 11:26:37;;;;;;;8.52;2.75;;;;;;;12.68;61.09;100892.78;5049989;28;20052;-84
2022/04/20 11:29:18;;;;;;;6.88;3.17;;;;;;;12.80;61.05;100886.75;5044219;28;20135;-84
2022/04/20 11:31:51;;;;;;;4.88;2.50;;;;;;;12.63;59.52;100879.03;5014083;28;20049;-84
2022/04/20 11:34:22;;;;;;;4.30;2.47;;;;;;;12.49;59.94;100868.50;5032502;28;20456;-83
2022/04/20 11:40:51;;;;;;;3.22;2.50;;;;;;;12.46;60.06;100861.59;5059295;22;20071;-80
2022/04/20 11:43:25;;;;;;;5.75;3.13;;;;;;;12.71;59.91;100863.56;5042712;28;20037;-79
2022/04/20 11:46:08;;;;;;;10.60;2.67;;;;;;;13.04;58.24;100864.94;5062469;28;20056;-79
2022/04/20 11:48:37;;;;;;;10.57;3.35;;;;;;;13.23;58.31;100859.34;5024266;28;20055;-79
2022/04/20 11:51:08;;;;;;;4.72;2.72;;;;;;;13.62;57.98;100856.66;5026218;28;20063;-79
2022/04/20 11:53:38;;;;;;;4.38;2.70;;;;;;;13.61;56.97;100854.97;5043167;28;20049;-80
2022/04/20 11:56:12;;;;;;;3.95;2.50;;;;;;;13.43;56.33;100850.94;5045485;28;20139;-80
2022/04/20 12:02:58;;;;;;;8.23;2.65;;;;;;;14.49;53.72;100851.56;5050712;28;20060;-80
2022/04/20 12:05:25;;;;;;;6.65;2.47;;;;;;;14.78;51.80;100850.31;5027633;28;20136;-79
2022/04/20 12:07:52;;;;;;;7.25;2.42;;;;;;;14.72;51.31;100839.28;5030619;28;20048;-81
2022/04/20 12:10:19;;;;;;;3.90;2.22;;;;;;;14.10;51.59;100837.53;5040069;28;20061;-78
2022/04/20 12:12:47;;;;;;;6.35;2.20;;;;;;;14.31;51.48;100835.13;5024587;28;20069;-81
2022/04/20 12:15:14;;;;;;;6.82;2.13;;;;;;;14.43;51.60;100834.25;5026494;28;20053;-79
2022/04/20 12:17:42;;;;;;;5.40;2.40;;;;;;;14.40;51.01;100826.53;5045611;28;20053;-79
2022/04/20 12:20:11;;;;;;;8.70;2.72;;;;;;;14.46;51.41;100823.47;5025835;28;20044;-79
2022/04/20 12:22:39;;;;;;;5.50;2.47;;;;;;;14.56;51.22;100823.66;5042359;28;20104;-79
2022/04/20 12:25:11;;;;;;;6.13;2.50;;;;;;;14.45;50.78;100827.03;5047889;28;20121;-79
2022/04/20 12:27:52;;;;;;;5.47;3.20;;;;;;;15.39;48.65;100827.16;5012910;28;20041;-79
2022/04/20 12:30:36;;;;;;;5.85;2.97;;;;;;;15.78;47.13;100818.97;5033265;28;20179;-79
2022/04/20 12:33:05;;;;;;;11.73;3.08;;;;;;;16.56;45.41;100810.94;5027462;28;20049;-79
2022/04/20 12:35:32;;;;;;;4.28;2.50;;;;;;;17.17;44.18;100824.56;5041884;28;20053;-79
2022/04/20 12:38:00;;;;;;;5.82;2.65;;;;;;;16.89;44.37;100814.53;5046000;28;20057;-79
2022/04/20 12:40:32;;;;;;;5.93;2.70;;;;;;;16.59;44.34;100817.81;5019101;28;20045;-80
2022/04/20 12:43:00;;;;;;;6.50;2.88;;;;;;;16.08;45.42;100800.63;5025873;28;20135;-79